Time;durP1;ratioP1;P1;durP2;ratioP2;P2;SDS_P1;SDS_P2;PMS_P1;PMS_P2;Temp;Humidity;BMP_temperature;BMP_pressure;BME280_temperature;BME280_humidity;BME280_pressure;Samples;Min_cycle;Max_cycle;Signal;HPM_P1;HPM_P2
2021/04/27 00:01:11;;;;;;;;;;;;;;;5.95;49.41;98773.19;4867141;29;19931;-77
2021/04/27 00:03:37;;;;;;;;;;;;;;;5.72;49.46;98769.28;4890762;29;19927;-77
2021/04/27 00:06:02;;;;;;;;;;;;;;;5.81;49.70;98768.28;4884642;29;20017;-78
2021/04/27 00:08:28;;;;;;;;;;;;;;;5.76;50.02;98775.19;4866506;29;19923;-77
2021/04/27 00:10:53;;;;;;;;;;;;;;;5.72;49.42;98764.16;4870726;29;19931;-77
2021/04/27 00:13:19;;;;;;;;;;;;;;;5.61;49.34;98755.81;4892918;29;19915;-78
2021/04/27 00:15:44;;;;;;;;;;;;;;;5.78;48.89;98755.56;4889253;29;19919;-77
2021/04/27 00:18:09;;;;;;;;;;;;;;;5.75;48.42;98751.34;4914430;29;19995;-77
2021/04/27 00:20:35;;;;;;;;;;;;;;;5.71;47.82;98749.72;4897416;29;19927;-77
2021/04/27 00:23:00;;;;;;;;;;;;;;;5.77;49.39;98747.06;4891029;29;19923;-78
2021/04/27 00:25:26;;;;;;;;;;;;;;;5.79;49.88;98745.31;4898647;29;19919;-76
2021/04/27 00:27:52;;;;;;;;;;;;;;;5.63;48.90;98749.84;4897233;29;19922;-78
2021/04/27 00:30:18;;;;;;;;;;;;;;;5.64;48.69;98740.47;4898821;29;20272;-76
2021/04/27 00:32:44;;;;;;;;;;;;;;;5.52;49.55;98738.09;4913599;29;19931;-76
2021/04/27 00:35:10;;;;;;;;;;;;;;;5.61;49.43;98736.25;4896492;29;20304;-77
2021/04/27 00:37:35;;;;;;;;;;;;;;;5.50;49.00;98729.63;4881807;29;19923;-76
2021/04/27 00:40:01;;;;;;;;;;;;;;;5.48;49.87;98726.25;4891251;29;19970;-76
2021/04/27 00:42:28;;;;;;;;;;;;;;;5.74;48.68;98728.38;4877237;29;19923;-75
2021/04/27 00:44:54;;;;;;;;;;;;;;;5.71;48.60;98731.81;4897814;29;20448;-76
2021/04/27 00:47:20;;;;;;;;;;;;;;;5.71;48.16;98724.16;4881051;29;19998;-76
2021/04/27 00:49:45;;;;;;;;;;;;;;;5.55;48.19;98726.13;4895289;29;19927;-76
2021/04/27 00:52:11;;;;;;;;;;;;;;;5.59;47.69;98721.81;4894770;29;20587;-76
2021/04/27 00:54:36;;;;;;;;;;;;;;;5.77;47.72;98721.50;4880280;29;19974;-75
2021/04/27 00:57:01;;;;;;;;;;;;;;;5.43;47.40;98723.78;4896681;29;19919;-76
2021/04/27 00:59:27;;;;;;;;;;;;;;;5.68;48.64;98731.03;4893243;29;19955;-76
2021/04/27 01:01:52;;;;;;;;;;;;;;;5.72;48.12;98718.16;4912568;29;19943;-76
2021/04/27 01:04:18;;;;;;;;;;;;;;;5.72;47.97;98718.16;4889185;29;19996;-78
2021/04/27 01:06:43;;;;;;;;;;;;;;;5.71;47.92;98721.59;4896228;29;20917;-76
2021/04/27 01:09:15;;;;;;;;;;;;;;;5.57;47.96;98714.19;4895780;29;19955;-76
2021/04/27 01:11:41;;;;;;;;;;;;;;;5.26;48.26;98713.81;4889561;29;20468;-75
2021/04/27 01:14:08;;;;;;;;;;;;;;;5.38;47.73;98708.53;4912409;29;19923;-78
2021/04/27 01:16:36;;;;;;;;;;;;;;;5.42;47.15;98712.69;4879042;29;19923;-76
2021/04/27 01:19:01;;;;;;;;;;;;;;;5.41;47.37;98713.56;4895648;29;20834;-77
2021/04/27 01:21:27;;;;;;;;;;;;;;;5.45;47.73;98710.13;4912983;29;19934;-78
2021/04/27 01:23:53;;;;;;;;;;;;;;;5.23;47.83;98716.41;4896665;29;19927;-76
2021/04/27 01:26:21;;;;;;;;;;;;;;;5.24;48.12;98708.75;4908943;29;19915;-78
2021/04/27 01:28:47;;;;;;;;;;;;;;;5.20;48.03;98693.47;4908312;29;20438;-76
2021/04/27 01:31:12;;;;;;;;;;;;;;;5.23;48.23;98694.28;4886953;29;20045;-75
2021/04/27 01:33:38;;;;;;;;;;;;;;;5.08;48.48;98701.31;4893551;29;20608;-76
2021/04/27 01:36:03;;;;;;;;;;;;;;;5.10;48.44;98702.97;4889486;29;19934;-78
2021/04/27 01:38:29;;;;;;;;;;;;;;;5.27;48.86;98700.19;4909782;29;19930;-78
2021/04/27 01:40:54;;;;;;;;;;;;;;;5.20;48.89;98693.47;4892949;29;20038;-75
2021/04/27 01:43:20;;;;;;;;;;;;;;;5.19;49.03;98689.25;4886757;29;19923;-77
2021/04/27 01:45:47;;;;;;;;;;;;;;;5.05;48.89;98693.72;4872886;29;19923;-77
2021/04/27 01:48:12;;;;;;;;;;;;;;;5.33;48.22;98694.97;4886003;29;20257;-77
2021/04/27 01:50:40;;;;;;;;;;;;;;;5.00;48.22;98697.19;4894345;29;19926;-78
2021/04/27 01:53:05;;;;;;;;;;;;;;;5.20;47.72;98688.34;4892997;29;20340;-78
2021/04/27 01:55:30;;;;;;;;;;;;;;;5.15;48.14;98690.16;4890118;29;19926;-78
2021/04/27 01:57:56;;;;;;;;;;;;;;;5.04;48.41;98690.34;4893948;29;20062;-78
2021/04/27 02:00:22;;;;;;;;;;;;;;;4.93;47.70;98690.47;4893887;29;19977;-78
2021/04/27 02:02:48;;;;;;;;;;;;;;;4.90;47.77;98680.28;4892444;29;19922;-77
2021/04/27 02:05:14;;;;;;;;;;;;;;;4.88;48.36;98691.38;4878895;29;19931;-79
2021/04/27 02:07:39;;;;;;;;;;;;;;;4.84;48.83;98682.94;4892002;29;20005;-78
2021/04/27 02:10:05;;;;;;;;;;;;;;;4.75;49.14;98680.53;4894593;29;20393;-78
2021/04/27 02:12:31;;;;;;;;;;;;;;;4.82;48.75;98674.47;4875020;29;20014;-79
2021/04/27 02:14:56;;;;;;;;;;;;;;;4.77;48.50;98679.66;4872945;29;19975;-76
2021/04/27 02:17:37;;;;;;;;;;;;;;;4.79;47.81;98677.06;4892014;29;19922;-76
2021/04/27 02:20:03;;;;;;;;;;;;;;;4.87;47.64;98675.25;4908097;29;20514;-76
2021/04/27 02:22:28;;;;;;;;;;;;;;;4.93;47.89;98670.06;4886022;29;19919;-76
2021/04/27 02:24:54;;;;;;;;;;;;;;;4.67;48.44;98670.41;4884715;29;20349;-76
2021/04/27 02:27:20;;;;;;;;;;;;;;;4.90;47.62;98664.16;4874261;29;19926;-76
2021/04/27 02:29:45;;;;;;;;;;;;;;;4.80;48.88;98666.00;4883220;29;19927;-76
2021/04/27 02:32:10;;;;;;;;;;;;;;;4.64;48.37;98657.72;4890814;29;19927;-76
2021/04/27 02:34:36;;;;;;;;;;;;;;;4.71;48.60;98648.28;4885478;29;20400;-76
2021/04/27 02:37:01;;;;;;;;;;;;;;;4.80;48.14;98658.34;4890304;29;20140;-76
2021/04/27 02:39:27;;;;;;;;;;;;;;;4.46;48.89;98658.78;4890577;29;20415;-75
2021/04/27 02:41:52;;;;;;;;;;;;;;;4.52;48.44;98657.88;4890079;29;19915;-76
2021/04/27 02:44:18;;;;;;;;;;;;;;;4.64;48.75;98659.44;4880667;29;20299;-76
2021/04/27 02:46:43;;;;;;;;;;;;;;;4.63;49.20;98650.06;4890995;29;19923;-76
2021/04/27 02:49:10;;;;;;;;;;;;;;;4.48;49.38;98657.06;4882230;29;19945;-76
2021/04/27 02:51:35;;;;;;;;;;;;;;;4.58;50.16;98658.66;4869281;29;19930;-76
2021/04/27 02:54:01;;;;;;;;;;;;;;;4.82;50.14;98666.81;4869250;29;19965;-76
2021/04/27 02:56:27;;;;;;;;;;;;;;;4.46;49.89;98666.44;4889469;29;19925;-76
2021/04/27 02:58:52;;;;;;;;;;;;;;;4.86;50.39;98658.25;4890544;29;19970;-76
2021/04/27 03:01:18;;;;;;;;;;;;;;;4.56;50.02;98655.28;4889665;29;19923;-76
2021/04/27 03:03:43;;;;;;;;;;;;;;;4.60;50.08;98656.06;4869177;29;20401;-76
2021/04/27 03:06:09;;;;;;;;;;;;;;;4.49;50.49;98653.66;4905906;29;19927;-76
2021/04/27 03:08:34;;;;;;;;;;;;;;;4.40;50.64;98658.88;4889452;29;20321;-76
2021/04/27 03:10:59;;;;;;;;;;;;;;;4.61;50.53;98662.88;4869493;29;19965;-75
2021/04/27 03:13:25;;;;;;;;;;;;;;;4.41;50.72;98660.56;4884881;29;20456;-76
2021/04/27 03:15:50;;;;;;;;;;;;;;;4.25;50.50;98648.88;4906106;29;19919;-77
2021/04/27 03:18:16;;;;;;;;;;;;;;;3.96;51.43;98650.03;4905096;29;19966;-75
2021/04/27 03:20:42;;;;;;;;;;;;;;;4.05;50.93;98647.41;4888735;29;20293;-76
2021/04/27 03:23:08;;;;;;;;;;;;;;;3.88;50.91;98654.41;4888932;29;19966;-77
2021/04/27 03:25:33;;;;;;;;;;;;;;;3.77;51.88;98651.94;4906613;29;19919;-76
2021/04/27 03:27:59;;;;;;;;;;;;;;;3.87;51.41;98648.44;4889628;29;20053;-76
2021/04/27 03:30:24;;;;;;;;;;;;;;;3.86;50.80;98640.84;4884184;29;19923;-75
2021/04/27 03:32:49;;;;;;;;;;;;;;;3.78;51.44;98646.81;4884145;29;19919;-76
2021/04/27 03:35:15;;;;;;;;;;;;;;;3.73;51.25;98643.50;4889027;29;20435;-76
2021/04/27 03:37:40;;;;;;;;;;;;;;;3.90;50.96;98637.38;4889390;29;19954;-76
2021/04/27 03:40:06;;;;;;;;;;;;;;;3.87;49.97;98637.41;4874053;29;19919;-76
2021/04/27 03:42:32;;;;;;;;;;;;;;;3.93;50.09;98634.81;4889861;29;19986;-76
2021/04/27 03:44:57;;;;;;;;;;;;;;;3.76;50.70;98640.06;4890070;29;19927;-76
2021/04/27 03:47:22;;;;;;;;;;;;;;;3.87;50.91;98642.50;4888562;29;19975;-76
2021/04/27 03:49:48;;;;;;;;;;;;;;;3.99;50.72;98642.34;4886462;29;19930;-76
2021/04/27 03:52:13;;;;;;;;;;;;;;;3.71;51.19;98637.56;4879523;29;19927;-77
2021/04/27 03:54:39;;;;;;;;;;;;;;;3.64;50.74;98635.94;4875711;29;19926;-76
2021/04/27 03:57:04;;;;;;;;;;;;;;;4.02;50.57;98632.16;4885197;29;20321;-76
2021/04/27 03:59:30;;;;;;;;;;;;;;;3.87;50.13;98638.25;4883556;29;20391;-76
2021/04/27 04:01:55;;;;;;;;;;;;;;;3.90;50.50;98642.47;4885025;29;19920;-76
2021/04/27 04:04:21;;;;;;;;;;;;;;;3.76;50.44;98645.16;4884616;29;19935;-76
2021/04/27 04:06:46;;;;;;;;;;;;;;;4.07;50.67;98642.28;4883950;29;20588;-77
2021/04/27 04:09:11;;;;;;;;;;;;;;;3.62;51.64;98639.38;4885510;29;20325;-76
2021/04/27 04:11:37;;;;;;;;;;;;;;;3.57;51.49;98639.41;4880214;29;20432;-76
2021/04/27 04:14:03;;;;;;;;;;;;;;;3.47;51.84;98640.38;4903654;29;20002;-75
2021/04/27 04:16:28;;;;;;;;;;;;;;;3.39;51.86;98640.41;4880423;29;19981;-75
2021/04/27 04:18:54;;;;;;;;;;;;;;;3.49;51.63;98634.41;4871724;29;20001;-76
2021/04/27 04:21:19;;;;;;;;;;;;;;;3.58;51.16;98641.13;4885416;29;20022;-75
2021/04/27 04:23:46;;;;;;;;;;;;;;;3.42;51.67;98644.63;4885655;29;19919;-75
2021/04/27 04:26:11;;;;;;;;;;;;;;;3.50;51.74;98645.44;4875534;29;19915;-75
2021/04/27 04:28:37;;;;;;;;;;;;;;;3.48;52.16;98642.03;4860569;29;19954;-74
2021/04/27 04:31:02;;;;;;;;;;;;;;;3.37;52.21;98643.84;4885675;29;19942;-76
2021/04/27 04:33:28;;;;;;;;;;;;;;;3.43;52.07;98646.34;4874599;29;20030;-76
2021/04/27 04:35:53;;;;;;;;;;;;;;;3.60;51.86;98641.91;4885337;29;20350;-75
2021/04/27 04:38:18;;;;;;;;;;;;;;;3.54;51.60;98639.44;4869708;29;20505;-75
2021/04/27 04:40:44;;;;;;;;;;;;;;;3.61;51.80;98643.63;4884272;29;19927;-75
2021/04/27 04:43:10;;;;;;;;;;;;;;;3.45;51.78;98640.38;4872319;29;19923;-76
2021/04/27 04:45:35;;;;;;;;;;;;;;;3.50;51.67;98643.72;4872730;29;20695;-76
2021/04/27 04:48:01;;;;;;;;;;;;;;;3.47;52.16;98653.94;4866276;29;19915;-76
2021/04/27 04:50:26;;;;;;;;;;;;;;;3.52;52.59;98651.34;4899581;29;19967;-74
2021/04/27 04:52:51;;;;;;;;;;;;;;;3.51;52.85;98655.59;4867025;29;20329;-76
2021/04/27 04:55:17;;;;;;;;;;;;;;;3.48;52.98;98649.69;4873700;29;20535;-77
2021/04/27 04:57:43;;;;;;;;;;;;;;;3.52;52.53;98656.44;4880434;29;19915;-76
2021/04/27 05:00:16;;;;;;;;;;;;;;;3.61;52.85;98660.59;4877185;29;19920;-77
2021/04/27 05:02:41;;;;;;;;;;;;;;;3.55;52.42;98666.59;4903220;29;19919;-76
2021/04/27 05:05:07;;;;;;;;;;;;;;;3.61;52.71;98669.09;4889782;29;19986;-77
2021/04/27 05:07:40;;;;;;;;;;;;;;;3.62;52.21;98665.66;4882745;29;20448;-76
2021/04/27 05:10:05;;;;;;;;;;;;;;;3.77;52.26;98665.53;4890019;29;19958;-77
2021/04/27 05:12:31;;;;;;;;;;;;;;;3.66;52.81;98661.41;4888637;29;20013;-77
2021/04/27 05:14:56;;;;;;;;;;;;;;;3.73;51.99;98656.22;4889720;29;19916;-76
2021/04/27 05:17:21;;;;;;;;;;;;;;;3.93;52.15;98665.38;4863732;29;20462;-77
2021/04/27 05:19:47;;;;;;;;;;;;;;;3.87;52.30;98662.88;4887390;29;20530;-76
2021/04/27 05:22:12;;;;;;;;;;;;;;;3.96;51.27;98668.72;4873166;29;19926;-77
2021/04/27 05:24:38;;;;;;;;;;;;;;;4.16;51.19;98668.50;4887754;29;20569;-77
2021/04/27 05:27:04;;;;;;;;;;;;;;;4.20;50.95;98671.88;4887239;29;19923;-77
2021/04/27 05:29:30;;;;;;;;;;;;;;;4.38;51.05;98668.25;4888309;29;19966;-77
2021/04/27 05:31:55;;;;;;;;;;;;;;;4.34;50.21;98658.97;4887113;29;19926;-76
2021/04/27 05:34:21;;;;;;;;;;;;;;;4.66;49.92;98665.34;4888022;29;20153;-75
2021/04/27 05:36:46;;;;;;;;;;;;;;;4.52;49.25;98668.09;4886916;29;20379;-76
2021/04/27 05:39:12;;;;;;;;;;;;;;;4.66;48.64;98662.81;4876512;29;19923;-75
2021/04/27 05:41:37;;;;;;;;;;;;;;;4.71;47.91;98661.84;4878159;29;19919;-76
2021/04/27 05:44:03;;;;;;;;;;;;;;;4.72;48.11;98662.69;4875254;29;19927;-76
2021/04/27 05:46:28;;;;;;;;;;;;;;;4.91;47.19;98666.69;4886118;29;20018;-75
2021/04/27 05:48:53;;;;;;;;;;;;;;;5.07;47.56;98666.47;4871641;29;19923;-76
2021/04/27 05:51:19;;;;;;;;;;;;;;;5.11;46.93;98666.41;4888158;29;19919;-74
2021/04/27 05:53:44;;;;;;;;;;;;;;;5.14;46.10;98662.94;4881610;29;20002;-74
2021/04/27 05:56:10;;;;;;;;;;;;;;;5.25;45.88;98668.72;4890005;29;19962;-76
2021/04/27 05:58:35;;;;;;;;;;;;;;;5.31;46.12;98668.63;4902373;29;20743;-76
2021/04/27 06:01:00;;;;;;;;;;;;;;;5.52;44.95;98674.25;4887374;29;19922;-74
2021/04/27 06:03:26;;;;;;;;;;;;;;;5.58;45.67;98679.25;4903344;29;19919;-76
2021/04/27 06:05:51;;;;;;;;;;;;;;;5.80;45.04;98672.91;4904362;29;19923;-76
2021/04/27 06:08:16;;;;;;;;;;;;;;;5.84;43.83;98666.88;4904143;29;20363;-76
2021/04/27 06:10:42;;;;;;;;;;;;;;;5.81;44.57;98672.00;4886143;29;20486;-77
2021/04/27 06:13:07;;;;;;;;;;;;;;;6.13;43.42;98667.22;4900524;29;20396;-76
2021/04/27 06:15:33;;;;;;;;;;;;;;;6.26;42.61;98674.63;4904130;29;19919;-76
2021/04/27 06:17:58;;;;;;;;;;;;;;;6.21;42.94;98671.31;4871120;29;20458;-76
2021/04/27 06:20:23;;;;;;;;;;;;;;;6.73;43.02;98663.41;4903264;29;20022;-74
2021/04/27 06:22:49;;;;;;;;;;;;;;;6.29;42.37;98663.47;4904138;29;20018;-75
2021/04/27 06:25:14;;;;;;;;;;;;;;;6.86;42.09;98669.94;4875279;29;20313;-77
2021/04/27 06:27:39;;;;;;;;;;;;;;;7.07;41.42;98672.03;4887860;29;20407;-76
2021/04/27 06:30:05;;;;;;;;;;;;;;;7.19;40.87;98672.63;4887889;29;20398;-74
2021/04/27 06:32:31;;;;;;;;;;;;;;;7.81;40.88;98666.81;4887086;29;19919;-75
2021/04/27 06:34:56;;;;;;;;;;;;;;;7.70;39.90;98660.25;4885681;29;19919;-76
2021/04/27 06:37:21;;;;;;;;;;;;;;;7.90;38.89;98659.72;4884046;29;19979;-75
2021/04/27 06:39:47;;;;;;;;;;;;;;;7.89;39.72;98670.88;4885978;29;20292;-75
2021/04/27 06:42:13;;;;;;;;;;;;;;;7.73;39.14;98664.44;4885459;29;19919;-74
2021/04/27 06:44:38;;;;;;;;;;;;;;;8.05;38.65;98655.91;4868436;29;19978;-76
2021/04/27 06:47:04;;;;;;;;;;;;;;;8.09;37.49;98657.50;4885094;29;19923;-74
2021/04/27 06:49:29;;;;;;;;;;;;;;;8.30;37.64;98656.06;4869653;29;19923;-75
2021/04/27 06:51:54;;;;;;;;;;;;;;;8.07;38.20;98658.41;4885388;29;19954;-75
2021/04/27 06:54:20;;;;;;;;;;;;;;;8.80;38.87;98655.50;4901691;29;19950;-75
2021/04/27 06:56:46;;;;;;;;;;;;;;;8.76;38.11;98654.75;4885247;29;20005;-76
2021/04/27 06:59:13;;;;;;;;;;;;;;;8.69;37.33;98650.69;4866138;29;20293;-76
2021/04/27 07:01:39;;;;;;;;;;;;;;;9.01;36.85;98651.44;4858826;29;19971;-75
2021/04/27 07:04:04;;;;;;;;;;;;;;;9.05;36.52;98650.44;4884770;29;19919;-76
2021/04/27 07:06:29;;;;;;;;;;;;;;;9.40;36.00;98648.50;4884537;29;20348;-76
2021/04/27 07:08:55;;;;;;;;;;;;;;;9.23;35.54;98648.19;4883724;29;19950;-75
2021/04/27 07:11:20;;;;;;;;;;;;;;;8.70;35.48;98646.41;4869506;29;20472;-76
2021/04/27 07:13:46;;;;;;;;;;;;;;;9.14;34.98;98639.88;4884394;29;21031;-75
2021/04/27 07:16:11;;;;;;;;;;;;;;;9.09;35.20;98643.50;4881481;29;19915;-75
2021/04/27 07:18:36;;;;;;;;;;;;;;;9.40;34.13;98648.50;4868512;29;20444;-75
2021/04/27 07:21:02;;;;;;;;;;;;;;;9.34;33.71;98641.78;4902096;29;20385;-73
2021/04/27 07:23:29;;;;;;;;;;;;;;;9.89;33.79;98636.50;4883681;29;20568;-76
2021/04/27 07:25:54;;;;;;;;;;;;;;;9.89;33.24;98639.09;4869155;29;19941;-76
2021/04/27 07:28:20;;;;;;;;;;;;;;;10.16;34.01;98626.16;4898809;29;19919;-76
2021/04/27 07:30:45;;;;;;;;;;;;;;;9.84;33.04;98625.56;4894543;29;19927;-77
2021/04/27 07:33:11;;;;;;;;;;;;;;;9.67;33.40;98627.88;4876183;29;21070;-76
2021/04/27 07:35:37;;;;;;;;;;;;;;;9.61;31.83;98622.03;4882851;29;19919;-76
2021/04/27 07:38:02;;;;;;;;;;;;;;;10.55;32.45;98623.84;4871731;29;19919;-76
2021/04/27 07:40:28;;;;;;;;;;;;;;;10.46;32.96;98624.19;4880919;29;19966;-76
2021/04/27 07:42:54;;;;;;;;;;;;;;;10.19;32.76;98611.41;4868847;29;20266;-76
2021/04/27 07:45:19;;;;;;;;;;;;;;;10.30;32.70;98615.38;4865242;29;19919;-75
2021/04/27 07:47:45;;;;;;;;;;;;;;;10.29;32.25;98613.72;4865214;29;20640;-75
2021/04/27 07:50:10;;;;;;;;;;;;;;;10.43;31.74;98620.00;4867724;29;20377;-76
2021/04/27 07:52:38;;;;;;;;;;;;;;;10.88;31.28;98620.88;4882261;29;19919;-75
2021/04/27 07:55:04;;;;;;;;;;;;;;;10.55;30.93;98612.72;4899566;29;19922;-76
2021/04/27 07:57:29;;;;;;;;;;;;;;;10.37;29.85;98612.50;4864893;29;19915;-76
2021/04/27 07:59:55;;;;;;;;;;;;;;;10.41;29.69;98616.66;4856048;29;19923;-75
2021/04/27 08:02:20;;;;;;;;;;;;;;;11.07;30.40;98611.50;4868537;29;20371;-76
2021/04/27 08:04:46;;;;;;;;;;;;;;;10.89;29.31;98602.78;4868873;29;19962;-76
2021/04/27 08:07:11;;;;;;;;;;;;;;;11.97;32.91;98602.63;4868621;29;19923;-77
2021/04/27 08:09:37;;;;;;;;;;;;;;;11.55;29.73;98604.41;4867571;29;20029;-77
2021/04/27 08:12:02;;;;;;;;;;;;;;;11.54;31.62;98604.44;4883818;29;19958;-76
2021/04/27 08:14:28;;;;;;;;;;;;;;;11.17;32.36;98596.50;4900348;29;19922;-76
2021/04/27 08:16:53;;;;;;;;;;;;;;;11.57;30.22;98609.50;4881937;29;19934;-75
2021/04/27 08:19:18;;;;;;;;;;;;;;;11.82;29.16;98610.13;4883597;29;19923;-76
2021/04/27 08:21:44;;;;;;;;;;;;;;;11.73;28.69;98597.63;4870365;29;19926;-75
2021/04/27 08:24:10;;;;;;;;;;;;;;;12.30;30.42;98592.56;4883248;29;19919;-76
2021/04/27 08:26:36;;;;;;;;;;;;;;;12.10;29.34;98601.19;4884078;29;19915;-76
2021/04/27 08:29:01;;;;;;;;;;;;;;;11.96;29.33;98593.25;4899963;29;19915;-75
2021/04/27 08:31:26;;;;;;;;;;;;;;;12.68;34.87;98590.78;4880104;29;20014;-76
2021/04/27 08:33:52;;;;;;;;;;;;;;;12.47;29.24;98597.78;4882983;29;19919;-77
2021/04/27 08:36:17;;;;;;;;;;;;;;;12.82;28.39;98584.97;4901032;29;20026;-76
2021/04/27 08:38:43;;;;;;;;;;;;;;;13.10;30.06;98586.22;4871703;29;20317;-76
2021/04/27 08:41:08;;;;;;;;;;;;;;;12.30;29.85;98582.22;4886052;29;20037;-76
2021/04/27 08:43:34;;;;;;;;;;;;;;;13.21;29.20;98583.94;4886468;29;20369;-77
2021/04/27 08:45:59;;;;;;;;;;;;;;;12.49;29.92;98577.03;4886026;29;19919;-76
2021/04/27 08:48:25;;;;;;;;;;;;;;;12.59;28.71;98586.06;4902499;29;20542;-76
2021/04/27 08:50:51;;;;;;;;;;;;;;;13.71;28.46;98572.00;4885198;29;20587;-76
2021/04/27 08:53:17;;;;;;;;;;;;;;;14.16;27.83;98571.31;4884877;29;20300;-76
2021/04/27 08:55:42;;;;;;;;;;;;;;;13.69;26.69;98571.22;4903086;29;19926;-77
2021/04/27 08:58:08;;;;;;;;;;;;;;;14.15;27.29;98572.22;4885057;29;20369;-76
2021/04/27 09:00:34;;;;;;;;;;;;;;;13.11;27.41;98572.34;4885726;29;19927;-77
2021/04/27 09:03:01;;;;;;;;;;;;;;;13.06;27.41;98577.75;4872084;29;22776;-76
2021/04/27 09:05:30;;;;;;;;;;;;;;;13.88;28.41;98561.56;4872103;29;19934;-76
2021/04/27 09:07:56;;;;;;;;;;;;;;;14.49;27.75;98559.22;4881925;29;19943;-75
2021/04/27 09:10:43;;;;;;;;;;;;;;;14.59;29.05;98558.63;4857411;29;19919;-75
2021/04/27 09:13:10;;;;;;;;;;;;;;;13.44;28.72;98559.53;4902781;29;19919;-75
2021/04/27 09:15:43;;;;;;;;;;;;;;;13.31;27.61;98554.13;4856300;29;19928;-76
2021/04/27 09:18:41;;;;;;;;;;;;;;;14.31;28.31;98550.69;4871287;29;20001;-76
2021/04/27 09:21:07;;;;;;;;;;;;;;;13.51;27.98;98558.31;4866137;29;19923;-77
2021/04/27 09:23:33;;;;;;;;;;;;;;;12.70;28.51;98546.78;4903962;29;19923;-77
2021/04/27 09:26:06;;;;;;;;;;;;;;;14.30;29.39;98547.25;4878207;29;20611;-76
2021/04/27 09:28:33;;;;;;;;;;;;;;;13.60;31.35;98547.47;4902890;29;20594;-75
2021/04/27 09:30:58;;;;;;;;;;;;;;;14.71;30.36;98543.31;4872320;29;20493;-77
2021/04/27 09:33:25;;;;;;;;;;;;;;;14.68;30.07;98538.31;4869866;29;19923;-75
2021/04/27 09:35:51;;;;;;;;;;;;;;;13.61;27.65;98548.31;4884957;29;19919;-76
2021/04/27 09:38:24;;;;;;;;;;;;;;;15.68;25.41;98541.13;4869410;29;20380;-76
2021/04/27 09:40:53;;;;;;;;;;;;;;;15.77;25.40;98539.78;4900863;29;19930;-75
2021/04/27 09:43:23;;;;;;;;;;;;;;;15.47;28.23;98523.31;4884451;29;19919;-75
2021/04/27 09:45:51;;;;;;;;;;;;;;;14.82;32.82;98530.59;4867429;29;19926;-75
2021/04/27 09:48:36;;;;;;;;;;;;;;;14.95;28.17;98521.19;4884134;29;20456;-76
2021/04/27 09:51:16;;;;;;;;;;;;;;;14.30;28.67;98520.50;4884377;29;19919;-75
2021/04/27 09:53:41;;;;;;;;;;;;;;;15.38;30.64;98521.28;4883338;29;19919;-76
2021/04/27 09:56:07;;;;;;;;;;;;;;;12.75;28.55;98530.16;4884917;29;19970;-76
2021/04/27 09:58:32;;;;;;;;;;;;;;;14.00;33.42;98526.44;4854397;29;19991;-76
2021/04/27 10:00:58;;;;;;;;;;;;;;;13.36;29.98;98521.13;4862530;29;19919;-76
2021/04/27 10:03:24;;;;;;;;;;;;;;;13.89;27.77;98511.50;4871694;29;19928;-77
2021/04/27 10:05:49;;;;;;;;;;;;;;;15.18;29.16;98516.41;4884354;29;21125;-76
2021/04/27 10:08:15;;;;;;;;;;;;;;;14.16;30.22;98521.25;4900584;29;19919;-76
2021/04/27 10:10:41;;;;;;;;;;;;;;;14.25;27.87;98514.75;4885310;29;19923;-77
2021/04/27 10:13:08;;;;;;;;;;;;;;;14.26;29.05;98511.25;4868720;29;19915;-77
2021/04/27 10:15:34;;;;;;;;;;;;;;;14.11;28.27;98518.09;4885107;29;19942;-76
2021/04/27 10:18:00;;;;;;;;;;;;;;;16.20;29.42;98511.97;4901517;29;19919;-76
2021/04/27 10:20:25;;;;;;;;;;;;;;;14.41;31.63;98505.19;4868896;29;19923;-77
2021/04/27 10:22:51;;;;;;;;;;;;;;;14.47;30.77;98502.28;4881217;29;19966;-77
2021/04/27 10:25:26;;;;;;;;;;;;;;;14.17;29.60;98503.06;4869248;29;19915;-77
2021/04/27 10:27:56;;;;;;;;;;;;;;;15.33;28.33;98505.16;4884243;29;19915;-77
2021/04/27 10:30:22;;;;;;;;;;;;;;;14.56;29.37;98504.38;4884323;29;20416;-77
2021/04/27 10:33:07;;;;;;;;;;;;;;;15.08;27.70;98495.38;4883809;29;19923;-77
2021/04/27 10:35:33;;;;;;;;;;;;;;;13.74;27.68;98496.78;4882753;29;19999;-76
2021/04/27 10:38:02;;;;;;;;;;;;;;;14.16;27.98;98490.19;4868061;29;19967;-77
2021/04/27 10:40:42;;;;;;;;;;;;;;;15.66;30.80;98486.69;4900825;29;19927;-77
2021/04/27 10:43:26;;;;;;;;;;;;;;;13.90;28.15;98476.06;4901932;29;20625;-76
2021/04/27 10:45:52;;;;;;;;;;;;;;;15.01;30.41;98474.16;4900023;29;19915;-77
2021/04/27 10:48:24;;;;;;;;;;;;;;;15.65;27.98;98468.63;4881037;29;20022;-77
2021/04/27 10:50:49;;;;;;;;;;;;;;;16.29;27.66;98464.63;4899399;29;19919;-77
2021/04/27 10:53:34;;;;;;;;;;;;;;;14.83;29.62;98464.88;4882893;29;20009;-77
2021/04/27 10:56:00;;;;;;;;;;;;;;;14.48;32.27;98452.13;4883397;29;20479;-75
2021/04/27 10:58:44;;;;;;;;;;;;;;;14.88;28.91;98456.81;4882928;29;19919;-76
2021/04/27 11:01:16;;;;;;;;;;;;;;;14.94;30.98;98451.25;4899450;29;20017;-76
2021/04/27 11:03:52;;;;;;;;;;;;;;;16.41;29.80;98449.19;4864915;29;19915;-76
2021/04/27 11:06:18;;;;;;;;;;;;;;;16.21;30.34;98440.88;4867280;29;19927;-76
2021/04/27 11:08:52;;;;;;;;;;;;;;;16.44;28.01;98443.78;4883166;29;20447;-76
2021/04/27 11:11:28;;;;;;;;;;;;;;;15.15;29.73;98438.81;4899604;29;19966;-75
2021/04/27 11:14:13;;;;;;;;;;;;;;;16.11;27.90;98434.63;4868240;29;19926;-76
2021/04/27 11:16:39;;;;;;;;;;;;;;;16.52;30.22;98424.16;4899213;29;20412;-75
2021/04/27 11:19:30;;;;;;;;;;;;;;;16.13;25.93;98427.56;4882812;29;19927;-75
2021/04/27 11:22:14;;;;;;;;;;;;;;;14.81;29.32;98420.06;4870755;29;19915;-74
2021/04/27 11:24:40;;;;;;;;;;;;;;;14.74;27.92;98426.53;4882781;29;19923;-75
2021/04/27 11:27:06;;;;;;;;;;;;;;;16.16;28.72;98419.56;4899864;29;19915;-76
2021/04/27 11:29:32;;;;;;;;;;;;;;;13.83;29.24;98422.97;4853227;29;19983;-75
2021/04/27 11:32:08;;;;;;;;;;;;;;;16.38;28.38;98415.59;4873038;29;20010;-75
2021/04/27 11:34:53;;;;;;;;;;;;;;;16.19;30.59;98421.97;4869746;29;19923;-74
2021/04/27 11:37:24;;;;;;;;;;;;;;;15.66;27.65;98418.38;4878042;29;20547;-76
2021/04/27 11:39:49;;;;;;;;;;;;;;;16.28;33.59;98400.63;4883237;29;20530;-76
2021/04/27 11:42:21;;;;;;;;;;;;;;;17.83;29.14;98397.06;4882361;29;20562;-75
2021/04/27 11:44:47;;;;;;;;;;;;;;;18.50;34.43;98406.16;4883279;29;19926;-77
2021/04/27 11:47:19;;;;;;;;;;;;;;;16.38;29.07;98405.22;4868157;29;19919;-78
2021/04/27 11:49:56;;;;;;;;;;;;;;;17.06;28.91;98401.56;4884538;29;20565;-75
2021/04/27 11:52:40;;;;;;;;;;;;;;;14.62;26.18;98408.16;4901475;29;19926;-76
2021/04/27 11:55:12;;;;;;;;;;;;;;;15.88;26.27;98399.75;4900407;29;19981;-76
2021/04/27 11:57:44;;;;;;;;;;;;;;;16.22;28.33;98400.19;4885155;29;20002;-77
2021/04/27 12:00:10;;;;;;;;;;;;;;;15.96;26.69;98394.03;4882811;29;20479;-75
2021/04/27 12:02:35;;;;;;;;;;;;;;;16.43;28.53;98401.38;4901984;29;20262;-76
2021/04/27 12:05:01;;;;;;;;;;;;;;;16.25;26.98;98406.00;4897447;29;19971;-75
2021/04/27 12:07:27;;;;;;;;;;;;;;;17.74;31.76;98392.47;4882900;29;19946;-75
2021/04/27 12:09:53;;;;;;;;;;;;;;;18.04;26.69;98389.50;4899118;29;20006;-75
2021/04/27 12:12:19;;;;;;;;;;;;;;;17.08;26.20;98390.13;4900101;29;20361;-75
2021/04/27 12:14:55;;;;;;;;;;;;;;;16.96;27.20;98390.13;4884390;29;19966;-76
2021/04/27 12:17:34;;;;;;;;;;;;;;;17.86;23.38;98377.78;4887687;29;20258;-76
2021/04/27 12:20:16;;;;;;;;;;;;;;;17.13;27.77;98377.63;4886399;29;20006;-76
2021/04/27 12:22:49;;;;;;;;;;;;;;;18.58;24.16;98373.31;4879516;29;19969;-75
2021/04/27 12:25:26;;;;;;;;;;;;;;;17.52;28.24;98367.16;4867100;29;19946;-76
2021/04/27 12:27:53;;;;;;;;;;;;;;;16.75;24.43;98369.81;4876046;29;19951;-77
2021/04/27 12:30:23;;;;;;;;;;;;;;;18.21;27.99;98363.97;4876483;29;20006;-76
2021/04/27 12:32:59;;;;;;;;;;;;;;;17.82;23.73;98364.16;4876732;29;19923;-77
2021/04/27 12:35:25;;;;;;;;;;;;;;;17.70;22.34;98365.03;4879161;29;19930;-77
2021/04/27 12:37:57;;;;;;;;;;;;;;;16.10;24.52;98368.88;4863615;29;19919;-76
2021/04/27 12:40:23;;;;;;;;;;;;;;;17.74;28.00;98356.03;4879741;29;19930;-77
2021/04/27 12:42:50;;;;;;;;;;;;;;;16.20;27.83;98358.69;4880287;29;19919;-77
2021/04/27 12:45:15;;;;;;;;;;;;;;;15.92;26.63;98351.03;4862490;29;21039;-76
2021/04/27 12:47:41;;;;;;;;;;;;;;;17.16;26.58;98342.75;4878203;29;19919;-76
2021/04/27 12:50:06;;;;;;;;;;;;;;;18.07;26.07;98351.97;4894832;29;19923;-77
2021/04/27 12:52:41;;;;;;;;;;;;;;;17.96;24.76;98356.16;4892088;29;19924;-77